Jupiter — WDG5267 — position and weather

sailwx.info

Track history (hours):
 
Tides and Currents Weather Stations Pressure Air Temp Water Temp Dewpoint Dewpoint Depression Visibility Wind Speed Wind Dir Waves Ship Positions

Jupiter

Owner: Planetary Positioning LLC, Saint Louis, MO. More information available from US FCC via Universal Licensing System and Coast Guard Vessel Documentation Center.

Last reported at 2017-Nov-07 19:50 UTC. Time now 2017-Nov-19 10:21 UTC.
Position N 25°33' W 080°08'.
Warning: this ship's position is 11 days out of date.

Length 16 m.

Type: Pleasure craft. MMSI: 367554880.

Date/timePositionNaut miles runAvg speedWind from/ knotsBaromVisibWave heightAir tempDewpointWater temp
2017-Nov-07 19:50N 25°33' W 080°08'618.3
2017-Nov-07 19:30N 25°39' W 080°07'918.1
2017-Nov-07 19:00N 25°48' W 080°05'1018.2
2017-Nov-07 18:25N 25°59' W 080°04'818.4
2017-Nov-07 18:00N 26°06' W 080°03'4818.3
2017-Nov-07 15:23N 26°54' W 080°01'  
2017-Nov-04 12:42N 31°56' W 080°45'316.7
2017-Nov-04 12:30N 31°59' W 080°46'714.0
2017-Nov-04 12:00N 32°05' W 080°50'3 0.2
2017-Nov-03 17:00N 32°08' W 080°49'2 4.6
2017-Nov-03 16:30N 32°06' W 080°50'3 6.9
2017-Nov-03 16:00N 32°03' W 080°49'  
2017-Oct-30 13:41N 34°43' W 076°50'315.1
2017-Oct-30 13:30N 34°43' W 076°47'510.0
2017-Oct-30 13:00N 34°42' W 076°41'2 3.3
2017-Oct-30 12:28N 34°43' W 076°42'0 0.0
2017-Oct-30 11:58N 34°43' W 076°42'0 0.0
2017-Oct-30 11:28N 34°43' W 076°42'0 0.0
2017-Oct-30 10:58N 34°43' W 076°42'0 0.0
2017-Oct-30 10:28N 34°43' W 076°42'0 0.0
2017-Oct-30 09:58N 34°43' W 076°42'0 0.0
2017-Oct-30 09:28N 34°43' W 076°42'0 0.0
2017-Oct-30 08:58N 34°43' W 076°42'0 0.0
2017-Oct-30 08:28N 34°43' W 076°42'0 0.0
2017-Oct-30 07:52N 34°43' W 076°42'0 0.0
2017-Oct-30 07:28N 34°43' W 076°42'0 0.0
2017-Oct-30 06:58N 34°43' W 076°42'0 0.0
2017-Oct-30 06:28N 34°43' W 076°42'0 0.0
2017-Oct-30 05:58N 34°43' W 076°42'0 0.0
2017-Oct-30 05:28N 34°43' W 076°42'0 0.0
2017-Oct-30 04:58N 34°43' W 076°42'0 0.0
2017-Oct-30 04:28N 34°43' W 076°42'0 0.0
2017-Oct-30 03:58N 34°43' W 076°42'0 0.0
2017-Oct-30 03:28N 34°43' W 076°42'0 0.0
2017-Oct-30 02:58N 34°43' W 076°42'0 0.0
2017-Oct-30 02:28N 34°43' W 076°42'0 0.0
2017-Oct-30 01:58N 34°43' W 076°42'0 0.0
2017-Oct-30 01:28N 34°43' W 076°42'0 0.0
2017-Oct-30 00:58N 34°43' W 076°42'0 0.0
2017-Oct-30 00:28N 34°43' W 076°42'0 0.0
2017-Oct-29 23:58N 34°43' W 076°42'0 0.0
2017-Oct-29 23:28N 34°43' W 076°42'0 0.0
2017-Oct-29 22:58N 34°43' W 076°42'0 0.0
2017-Oct-29 22:28N 34°43' W 076°42'0 0.0
2017-Oct-29 21:58N 34°43' W 076°42'0 0.0
2017-Oct-29 21:28N 34°43' W 076°42'0 0.0
2017-Oct-29 20:58N 34°43' W 076°42'0 0.0
2017-Oct-29 20:28N 34°43' W 076°42'0 0.0
2017-Oct-29 19:58N 34°43' W 076°42'0 0.0
2017-Oct-29 19:28N 34°43' W 076°42'0 0.0
2017-Oct-29 18:58N 34°43' W 076°42'0 0.0
2017-Oct-29 18:28N 34°43' W 076°42'0 0.0
2017-Oct-29 17:58N 34°43' W 076°42'0 0.0
2017-Oct-29 17:28N 34°43' W 076°42'0 0.0
2017-Oct-29 16:58N 34°43' W 076°42'0 0.0
2017-Oct-29 16:28N 34°43' W 076°42'1 2.1
2017-Oct-29 16:00N 34°44' W 076°41'3 6.5
2017-Oct-29 15:30N 34°47' W 076°41'4 8.5
2017-Oct-29 15:00N 34°51' W 076°41'  
Track history (hours):
 
Tides and Currents Weather Stations Pressure Air Temp Water Temp Dewpoint Dewpoint Depression Visibility Wind Speed Wind Dir Waves Ship Positions

Jupiter

Owner: Planetary Positioning LLC, Saint Louis, MO. More information available from US FCC via Universal Licensing System and Coast Guard Vessel Documentation Center.

Last reported at 2017-Nov-07 19:50 UTC. Time now 2017-Nov-19 10:21 UTC.
Position N 25°33' W 080°08'.
Warning: this ship's position is 11 days out of date.

Length 16 m.

Type: Pleasure craft. MMSI: 367554880.

Date/timePositionNaut miles runAvg speedWind from/ knotsBaromVisibWave heightAir tempDewpointWater temp
2017-Nov-07 19:50N 25°33' W 080°08'618.3
2017-Nov-07 19:30N 25°39' W 080°07'918.1
2017-Nov-07 19:00N 25°48' W 080°05'1018.2
2017-Nov-07 18:25N 25°59' W 080°04'818.4
2017-Nov-07 18:00N 26°06' W 080°03'4818.3
2017-Nov-07 15:23N 26°54' W 080°01'  
2017-Nov-04 12:42N 31°56' W 080°45'316.7
2017-Nov-04 12:30N 31°59' W 080°46'714.0
2017-Nov-04 12:00N 32°05' W 080°50'3 0.2
2017-Nov-03 17:00N 32°08' W 080°49'2 4.6
2017-Nov-03 16:30N 32°06' W 080°50'3 6.9
2017-Nov-03 16:00N 32°03' W 080°49'  
2017-Oct-30 13:41N 34°43' W 076°50'315.1
2017-Oct-30 13:30N 34°43' W 076°47'510.0
2017-Oct-30 13:00N 34°42' W 076°41'2 3.3
2017-Oct-30 12:28N 34°43' W 076°42'0 0.0
2017-Oct-30 11:58N 34°43' W 076°42'0 0.0
2017-Oct-30 11:28N 34°43' W 076°42'0 0.0
2017-Oct-30 10:58N 34°43' W 076°42'0 0.0
2017-Oct-30 10:28N 34°43' W 076°42'0 0.0
2017-Oct-30 09:58N 34°43' W 076°42'0 0.0
2017-Oct-30 09:28N 34°43' W 076°42'0 0.0
2017-Oct-30 08:58N 34°43' W 076°42'0 0.0
2017-Oct-30 08:28N 34°43' W 076°42'0 0.0
2017-Oct-30 07:52N 34°43' W 076°42'0 0.0
2017-Oct-30 07:28N 34°43' W 076°42'0 0.0
2017-Oct-30 06:58N 34°43' W 076°42'0 0.0
2017-Oct-30 06:28N 34°43' W 076°42'0 0.0
2017-Oct-30 05:58N 34°43' W 076°42'0 0.0
2017-Oct-30 05:28N 34°43' W 076°42'0 0.0
2017-Oct-30 04:58N 34°43' W 076°42'0 0.0
2017-Oct-30 04:28N 34°43' W 076°42'0 0.0
2017-Oct-30 03:58N 34°43' W 076°42'0 0.0
2017-Oct-30 03:28N 34°43' W 076°42'0 0.0
2017-Oct-30 02:58N 34°43' W 076°42'0 0.0
2017-Oct-30 02:28N 34°43' W 076°42'0 0.0
2017-Oct-30 01:58N 34°43' W 076°42'0 0.0
2017-Oct-30 01:28N 34°43' W 076°42'0 0.0
2017-Oct-30 00:58N 34°43' W 076°42'0 0.0
2017-Oct-30 00:28N 34°43' W 076°42'0 0.0
2017-Oct-29 23:58N 34°43' W 076°42'0 0.0
2017-Oct-29 23:28N 34°43' W 076°42'0 0.0
2017-Oct-29 22:58N 34°43' W 076°42'0 0.0
2017-Oct-29 22:28N 34°43' W 076°42'0 0.0
2017-Oct-29 21:58N 34°43' W 076°42'0 0.0
2017-Oct-29 21:28N 34°43' W 076°42'0 0.0
2017-Oct-29 20:58N 34°43' W 076°42'0 0.0
2017-Oct-29 20:28N 34°43' W 076°42'0 0.0
2017-Oct-29 19:58N 34°43' W 076°42'0 0.0
2017-Oct-29 19:28N 34°43' W 076°42'0 0.0
2017-Oct-29 18:58N 34°43' W 076°42'0 0.0
2017-Oct-29 18:28N 34°43' W 076°42'0 0.0
2017-Oct-29 17:58N 34°43' W 076°42'0 0.0
2017-Oct-29 17:28N 34°43' W 076°42'0 0.0
2017-Oct-29 16:58N 34°43' W 076°42'0 0.0
2017-Oct-29 16:28N 34°43' W 076°42'1 2.1
2017-Oct-29 16:00N 34°44' W 076°41'3 6.5
2017-Oct-29 15:30N 34°47' W 076°41'4 8.5
2017-Oct-29 15:00N 34°51' W 076°41'  

Dump ship's entire track history